Pricedale, Pennsylvania
Current Conditions -  °F | °C
As of 3:53 PM on Tuesday 21 Oct 2014 (Local Time) from KAGC Reporting Station
Overcast Overcast  
Wind Chill: 51°   Ceiling: 4200
Heat Index: 51°   Visibility: 9mi
Dew Point: 43°   Wind: 15mph
Humidity: 74%   Direction: 330°NNW
Pressure: 29.89"   Gusts: 23mph
Location:  40.13°N, 79.84°W
Report Text: KAGC 211953Z 33013G20KT 9SM SCT022 SCT030 OVC042 11/06 A2989 RMK AO2 RAB28E38 SLP126 P0000 T01060061
Loading
Personal Weather Stations






























Interactive Weather Map
Tropical Storm Tracking
New forecast layout! Learn more

10-Day Weather Forecast

Advertisements
Track Severe Weather on mobile